Lacota, MI (49063)

4:12 PM EDT on August 31, 2015 (GMT -0400)
Columbia Twp | | Change Station
CLOSE
Current Station
Personal Weather Station
Location: Grand Junction, MI
Elevation: 665 ft
Nearby Weather Stations

Elev 665 ft 42.41 °N, 86.05 °W | Updated 15 seconds ago

Clear
Clear
81.4 °F
Feels Like 87 °F
N
0.4
Wind Variable Wind from WSW
Gusts 1.1 mph

Today
High -- | Low -- °F
--% Chance of Precip.
Yesterday
High -- | Low -- °F
Precip. -- in
7:08 AM 8:20 PM
Waning Gibbous, 94% visible
Pressure 30.06 in
Visibility 7.0 miles
Clouds Clear
Heat Index 87 °F
Dew Point 74 °F
Humidity 78%
Rainfall 0.00 in
Snow Depth Not available.
UV 6 out of 12
Pollen 10.40 out of 12
Air Quality Not available.
Flu Activity Not available.
METAR KLWA 311955Z AUTO 26004KT 7SM CLR 26/20 A3006 RMK AO2 T02590196
Pressure 30.06 in
Visibility 7.0 miles
Clouds Clear
Heat Index 87 °F
Dew Point 74 °F
Humidity 78%
Rainfall 0.00 in
Snow Depth Not available.
UV 6 out of 12
Pollen 10.40 out of 12
Air Quality Not available.
Flu Activity Not available.
METAR KLWA 311955Z AUTO 26004KT 7SM CLR 26/20 A3006 RMK AO2 T02590196

10-Day Weather Forecast

×

Almanac

Astronomy

Aug. 31, 2015 Rise Set
Actual Time
Civil Twilight
Nautical Twilight
Astronomical Twilight
Moon
Length of Visible Light
Length of Day
Tomorrow will be .
, % of the Moon is Illuminated

Today's Extremes

State Highs State Lows

Community

WunderPhotos

Upload Photos

1,851,352 photos uploaded!

WunderBlogs® & News

Nearby

Air Quality

  Air Quality AQ Index Pollutant
Not available.

Snow Depth

Station Depth Elevation

Earthquake Activity

City Distance Mag. Time & Date
Minimum magnitude displayed is 2.5.

Coastal Water Temperatures

Place Temperature

Stations

Nearby Weather Stations

Station Location Temp. Windchill Dew Point Humidity Wind Precip. Elev Updated Type